createdAt,value
2023-02-15T00:00:09.372Z,41.10
2023-02-15T00:02:36.205Z,38.20
2023-02-15T00:05:03.519Z,38.80
2023-02-15T00:07:30.461Z,37.80
2023-02-15T00:09:57.562Z,37.20
2023-02-15T00:12:24.570Z,36.20
2023-02-15T00:14:51.321Z,36.40
2023-02-15T00:17:18.409Z,36.00
2023-02-15T00:19:45.403Z,35.40
2023-02-15T00:22:12.289Z,36.00
2023-02-15T00:24:39.246Z,35.80
2023-02-15T00:27:06.234Z,36.40
2023-02-15T00:29:33.313Z,37.90
2023-02-15T00:32:00.385Z,38.30
2023-02-15T00:34:30.419Z,37.90
2023-02-15T00:36:58.004Z,39.00
2023-02-15T00:39:25.553Z,40.20
2023-02-15T00:41:52.406Z,41.60
2023-02-15T00:44:19.358Z,41.90
2023-02-15T00:46:46.224Z,41.30
2023-02-15T00:49:13.196Z,41.30
2023-02-15T00:51:40.674Z,42.00
2023-02-15T00:54:07.985Z,43.10
2023-02-15T00:56:34.947Z,40.80
2023-02-15T00:59:01.930Z,41.80
2023-02-15T01:01:28.960Z,43.40
2023-02-15T01:03:56.002Z,42.00
2023-02-15T01:06:22.914Z,42.40
2023-02-15T01:08:49.787Z,41.50
2023-02-15T01:11:25.205Z,43.90
2023-02-15T01:13:54.898Z,41.60
2023-02-15T01:16:23.967Z,43.00
2023-02-15T01:18:51.136Z,43.70
2023-02-15T01:21:20.913Z,45.50
2023-02-15T01:23:47.950Z,44.20
2023-02-15T01:26:15.032Z,44.30
2023-02-15T01:28:45.981Z,44.10
2023-02-15T01:31:17.106Z,44.30
2023-02-15T01:33:46.258Z,44.00
2023-02-15T01:36:13.514Z,44.90
2023-02-15T01:38:43.530Z,47.60
2023-02-15T01:41:27.321Z,46.80
2023-02-15T01:44:03.060Z,44.40
2023-02-15T01:46:39.123Z,45.20
2023-02-15T01:49:17.773Z,46.40
2023-02-15T01:51:47.315Z,48.10
2023-02-15T01:54:28.811Z,46.10
2023-02-15T01:57:03.257Z,44.10
2023-02-15T01:59:34.131Z,46.60
2023-02-15T02:02:02.668Z,46.90
2023-02-15T02:04:36.522Z,47.60
2023-02-15T02:07:05.504Z,44.50
2023-02-15T02:09:33.251Z,46.30
2023-02-15T02:12:00.902Z,43.70
2023-02-15T02:14:28.106Z,46.70
2023-02-15T02:17:31.492Z,46.00
2023-02-15T02:20:18.844Z,45.50
2023-02-15T02:23:08.633Z,46.00
2023-02-15T02:25:44.203Z,47.50
2023-02-15T02:28:20.019Z,44.20
2023-02-15T02:31:13.496Z,44.30
2023-02-15T02:34:06.523Z,41.90
2023-02-15T02:36:55.440Z,42.20
2023-02-15T02:40:13.729Z,44.20
2023-02-15T02:42:44.542Z,44.70
2023-02-15T02:45:20.579Z,43.90
2023-02-15T02:47:54.854Z,37.10
2023-02-15T02:50:26.791Z,39.90
2023-02-15T02:52:56.313Z,38.70
2023-02-15T02:55:59.839Z,39.20
2023-02-15T02:58:32.757Z,38.50
2023-02-15T03:01:07.146Z,39.20
2023-02-15T03:03:39.645Z,37.90
2023-02-15T03:06:18.943Z,37.40
2023-02-15T03:09:17.625Z,32.90
2023-02-15T03:11:46.017Z,35.90
2023-02-15T03:14:17.508Z,36.50
2023-02-15T03:21:41.536Z,33.60
2023-02-15T03:24:16.515Z,35.90
2023-02-15T03:26:47.793Z,35.30
2023-02-15T03:29:18.490Z,36.90
2023-02-15T03:31:52.057Z,36.80
2023-02-15T03:34:19.577Z,34.80
2023-02-15T03:36:54.615Z,33.20
2023-02-15T03:39:33.862Z,34.30
2023-02-15T03:42:15.125Z,33.00
2023-02-15T03:44:51.389Z,33.30
2023-02-15T03:47:22.649Z,33.70
2023-02-15T03:50:01.447Z,35.00
2023-02-15T03:52:30.856Z,31.50
2023-02-15T03:54:58.294Z,32.20
2023-02-15T03:57:49.372Z,33.00
2023-02-15T04:00:39.193Z,33.40
2023-02-15T04:03:29.183Z,33.00
2023-02-15T04:05:56.318Z,35.10
2023-02-15T04:08:43.124Z,34.50
2023-02-15T04:11:09.967Z,34.60
2023-02-15T04:13:36.751Z,32.10
2023-02-15T04:16:07.725Z,31.70
2023-02-15T04:19:00.336Z,32.80
2023-02-15T04:21:48.107Z,30.90
2023-02-15T04:24:34.120Z,32.10
2023-02-15T04:27:01.512Z,31.80
2023-02-15T04:29:29.112Z,29.70
2023-02-15T04:31:57.825Z,24.80
2023-02-15T04:34:25.186Z,26.10
2023-02-15T04:36:52.376Z,23.80
2023-02-15T04:39:20.187Z,25.80
2023-02-15T04:41:47.359Z,33.70
2023-02-15T04:44:14.195Z,35.50
2023-02-15T04:46:40.977Z,37.30
2023-02-15T04:49:09.220Z,33.80
2023-02-15T04:51:35.980Z,32.50
2023-02-15T04:54:02.809Z,27.30
2023-02-15T04:56:31.205Z,25.70
2023-02-15T04:58:58.199Z,26.40
2023-02-15T05:01:25.076Z,28.70
2023-02-15T05:03:51.940Z,28.70
2023-02-15T05:06:18.790Z,32.20
2023-02-15T05:08:45.607Z,34.50
2023-02-15T05:11:12.464Z,32.80
2023-02-15T05:13:39.327Z,32.90
2023-02-15T05:16:06.150Z,32.70
2023-02-15T05:18:32.963Z,31.90
2023-02-15T05:20:59.792Z,29.00
2023-02-15T05:23:26.700Z,32.30
2023-02-15T05:26:12.007Z,31.00
2023-02-15T05:28:39.575Z,28.40
2023-02-15T05:31:17.357Z,25.50
2023-02-15T05:33:45.237Z,27.10
2023-02-15T05:36:12.586Z,28.30
2023-02-15T05:38:40.369Z,26.90
2023-02-15T05:41:08.874Z,28.30
2023-02-15T05:43:36.436Z,32.40
2023-02-15T05:46:04.868Z,34.40
2023-02-15T05:48:32.585Z,31.70
2023-02-15T05:51:06.100Z,33.40
2023-02-15T05:53:35.502Z,34.50
2023-02-15T05:56:03.667Z,35.80
2023-02-15T05:58:36.331Z,36.80
2023-02-15T06:01:13.211Z,33.50
2023-02-15T06:03:41.056Z,35.80
2023-02-15T06:06:08.205Z,35.20
2023-02-15T06:08:37.204Z,37.00
2023-02-15T06:11:04.337Z,34.20
2023-02-15T06:13:31.707Z,30.50
2023-02-15T06:15:59.011Z,29.50
2023-02-15T06:18:26.503Z,29.20
2023-02-15T06:20:53.584Z,29.20
2023-02-15T06:23:20.668Z,30.40
2023-02-15T06:25:47.646Z,35.10
2023-02-15T06:28:15.428Z,35.40
2023-02-15T06:30:42.674Z,35.70
2023-02-15T06:33:09.741Z,32.40
2023-02-15T06:35:36.761Z,33.40
2023-02-15T06:38:03.866Z,31.10
2023-02-15T06:40:30.918Z,31.00
2023-02-15T06:42:58.576Z,29.50
2023-02-15T06:45:25.617Z,30.40
2023-02-15T06:47:52.656Z,30.40
2023-02-15T06:50:20.665Z,29.10
2023-02-15T06:52:47.847Z,32.10
2023-02-15T06:55:15.575Z,30.10
2023-02-15T06:57:42.734Z,31.50
2023-02-15T07:00:10.387Z,34.40
2023-02-15T07:02:37.458Z,35.20
2023-02-15T07:05:06.636Z,39.60
2023-02-15T07:07:33.864Z,31.40
2023-02-15T07:10:01.416Z,31.70
2023-02-15T07:12:45.598Z,30.70
2023-02-15T07:15:22.568Z,29.20
2023-02-15T07:17:50.501Z,33.00
2023-02-15T07:20:20.590Z,30.80
2023-02-15T07:22:47.790Z,32.50
2023-02-15T07:25:16.558Z,33.80
2023-02-15T07:27:46.597Z,31.50
2023-02-15T07:30:19.599Z,34.90
2023-02-15T07:33:06.810Z,34.40
2023-02-15T07:35:36.560Z,37.60
2023-02-15T07:38:05.719Z,40.00
2023-02-15T07:40:35.580Z,36.70
2023-02-15T07:43:04.690Z,39.80
2023-02-15T07:45:34.261Z,38.40
2023-02-15T07:48:04.832Z,39.70
2023-02-15T07:50:34.684Z,37.50
2023-02-15T07:53:05.144Z,33.00
2023-02-15T08:07:51.019Z,30.10
2023-02-15T08:10:38.030Z,32.50
2023-02-15T08:13:04.880Z,27.90
2023-02-15T08:15:32.749Z,27.00
2023-02-15T08:17:59.711Z,25.70
2023-02-15T08:20:27.995Z,27.30
2023-02-15T08:22:54.834Z,27.70
2023-02-15T08:25:21.683Z,24.70
2023-02-15T08:27:48.642Z,27.10
2023-02-15T08:30:15.900Z,26.60
2023-02-15T08:32:42.943Z,28.70
2023-02-15T08:35:09.892Z,28.80
2023-02-15T08:37:36.961Z,34.30
2023-02-15T08:40:04.058Z,30.10
2023-02-15T08:42:31.669Z,36.30
2023-02-15T08:44:58.617Z,29.80
2023-02-15T08:47:25.567Z,25.90
2023-02-15T08:49:52.517Z,25.20
2023-02-15T08:52:19.573Z,25.60
2023-02-15T08:54:46.532Z,25.90
2023-02-15T08:57:13.474Z,26.50
2023-02-15T08:59:40.273Z,25.10
2023-02-15T09:02:07.295Z,24.90
2023-02-15T09:04:34.232Z,24.80
2023-02-15T09:07:01.383Z,22.60
2023-02-15T09:09:28.445Z,23.70
2023-02-15T09:11:59.201Z,23.40
2023-02-15T09:14:27.888Z,25.70
2023-02-15T09:16:56.102Z,24.90
2023-02-15T09:19:24.833Z,24.20
2023-02-15T09:21:52.751Z,30.50
2023-02-15T09:24:19.939Z,25.30
2023-02-15T09:26:48.833Z,25.30
2023-02-15T09:29:17.423Z,45.70
2023-02-15T09:31:51.103Z,31.80
2023-02-15T09:34:21.928Z,25.10
2023-02-15T09:36:49.862Z,22.90
2023-02-15T09:39:21.657Z,20.80
2023-02-15T09:42:07.972Z,20.90
2023-02-15T09:44:53.697Z,20.00
2023-02-15T09:47:48.202Z,23.70
2023-02-15T09:50:37.047Z,18.30
2023-02-15T09:53:32.110Z,17.70
2023-02-15T09:56:24.866Z,17.40
2023-02-15T09:58:51.692Z,17.40
2023-02-15T10:01:34.037Z,20.60
2023-02-15T10:04:34.975Z,21.10
2023-02-15T10:07:21.321Z,26.40
2023-02-15T10:10:26.576Z,21.40
2023-02-15T10:13:02.211Z,16.00
2023-02-15T10:15:52.707Z,16.80
2023-02-15T10:18:26.791Z,18.70
2023-02-15T10:21:12.209Z,22.50
2023-02-15T10:24:01.735Z,40.80
2023-02-15T10:26:44.080Z,32.00
2023-02-15T10:29:24.113Z,24.00
2023-02-15T10:31:58.099Z,25.00
2023-02-15T10:34:51.360Z,320.30
2023-02-15T10:37:40.198Z,199.70
2023-02-15T10:40:10.072Z,80.20
2023-02-15T10:45:40.976Z,26.70
2023-02-15T10:48:20.280Z,25.90
2023-02-15T10:51:00.612Z,101.40
2023-02-15T10:53:46.324Z,76.60
2023-02-15T10:56:37.012Z,51.50
2023-02-15T10:59:48.864Z,37.70
2023-02-15T11:02:30.937Z,36.70
2023-02-15T11:05:01.013Z,34.00
2023-02-15T11:07:36.053Z,32.60
2023-02-15T11:10:28.116Z,33.30
2023-02-15T11:12:57.611Z,34.80
2023-02-15T11:15:35.943Z,42.80
2023-02-15T11:18:31.947Z,52.20
2023-02-15T11:21:21.536Z,38.00
2023-02-15T11:23:49.719Z,48.90
2023-02-15T11:26:33.948Z,33.20
2023-02-15T11:29:24.882Z,31.10
2023-02-15T11:31:57.984Z,41.20
2023-02-15T11:34:37.611Z,34.50
2023-02-15T11:37:16.949Z,30.10
2023-02-15T11:39:45.740Z,30.80
2023-02-15T11:42:17.885Z,28.80
2023-02-15T11:45:00.125Z,31.90
2023-02-15T11:47:27.551Z,29.80
2023-02-15T11:49:54.939Z,28.20
2023-02-15T11:52:22.202Z,26.80
2023-02-15T11:54:51.584Z,27.00
2023-02-15T11:57:33.204Z,27.40
2023-02-15T12:00:08.835Z,29.90
2023-02-15T12:02:38.833Z,29.70
2023-02-15T12:05:21.265Z,29.00
2023-02-15T12:07:54.048Z,28.00
2023-02-15T12:10:22.153Z,33.50
2023-02-15T12:12:49.869Z,47.00
2023-02-15T12:15:31.969Z,39.80
2023-02-15T12:17:58.930Z,48.60
2023-02-15T12:20:31.610Z,39.40
2023-02-15T12:23:12.121Z,35.20
2023-02-15T12:25:44.660Z,73.50
2023-02-15T12:28:41.705Z,34.50
2023-02-15T12:31:24.752Z,31.40
2023-02-15T12:33:58.595Z,34.00
2023-02-15T12:36:30.445Z,31.50
2023-02-15T12:39:07.264Z,31.70
2023-02-15T12:41:36.002Z,34.60
2023-02-15T12:44:19.066Z,34.10
2023-02-15T12:47:01.652Z,32.80
2023-02-15T12:49:31.151Z,35.50
2023-02-15T12:52:00.999Z,34.20
2023-02-15T12:59:26.372Z,32.30
2023-02-15T13:01:57.480Z,30.30
2023-02-15T13:04:30.304Z,30.80
2023-02-15T13:07:03.311Z,31.30
2023-02-15T13:09:33.294Z,33.90
2023-02-15T13:14:47.811Z,38.00
2023-02-15T13:17:18.570Z,38.70
2023-02-15T13:19:55.684Z,37.30
2023-02-15T13:22:38.481Z,28.90
2023-02-15T13:25:28.021Z,31.30
2023-02-15T13:28:01.725Z,30.40
2023-02-15T13:30:36.407Z,34.50
2023-02-15T13:33:07.329Z,34.70
2023-02-15T13:36:01.957Z,35.60
2023-02-15T13:39:04.381Z,35.00
2023-02-15T13:41:47.556Z,34.10
2023-02-15T13:44:29.908Z,35.00
2023-02-15T13:47:11.163Z,33.30
2023-02-15T13:49:59.281Z,33.70
2023-02-15T13:52:28.015Z,34.50
2023-02-15T13:55:01.671Z,33.00
2023-02-15T13:58:13.930Z,41.50
2023-02-15T14:01:06.037Z,39.10
2023-02-15T14:03:53.377Z,36.20
2023-02-15T14:06:26.819Z,36.90
2023-02-15T14:09:23.167Z,39.70
2023-02-15T14:12:11.520Z,35.90
2023-02-15T14:14:45.069Z,37.50
2023-02-15T14:17:18.477Z,37.70
2023-02-15T14:20:03.154Z,37.20
2023-02-15T14:22:48.943Z,36.70
2023-02-15T14:25:56.378Z,35.30
2023-02-15T14:28:35.418Z,36.50
2023-02-15T14:31:07.801Z,35.20
2023-02-15T14:33:43.988Z,35.60
2023-02-15T14:36:18.067Z,36.40
2023-02-15T14:39:30.308Z,32.80
2023-02-15T14:42:15.920Z,36.80
2023-02-15T14:44:57.294Z,33.70
2023-02-15T14:47:32.207Z,40.40
2023-02-15T14:49:59.357Z,41.10
2023-02-15T14:52:26.758Z,37.50
2023-02-15T14:54:55.241Z,36.40
2023-02-15T14:57:24.978Z,37.50
2023-02-15T14:59:59.499Z,33.60
2023-02-15T15:02:40.686Z,30.90
2023-02-15T15:05:12.832Z,31.50
2023-02-15T15:07:47.820Z,30.50
2023-02-15T15:10:17.781Z,31.50
2023-02-15T15:15:20.095Z,30.80
2023-02-15T15:18:02.797Z,31.30
2023-02-15T15:20:51.729Z,31.10
2023-02-15T15:23:22.155Z,32.00
2023-02-15T15:26:19.291Z,32.30
2023-02-15T15:28:46.099Z,31.60
2023-02-15T15:31:25.444Z,35.10
2023-02-15T15:34:11.497Z,31.30
2023-02-15T15:36:38.522Z,33.10
2023-02-15T15:39:38.720Z,32.00
2023-02-15T15:42:39.440Z,39.00
2023-02-15T15:45:33.419Z,33.30
2023-02-15T15:48:16.590Z,35.20
2023-02-15T15:50:44.252Z,37.50
2023-02-15T15:53:22.607Z,34.60
2023-02-15T15:55:55.482Z,33.30
2023-02-15T15:58:24.082Z,34.50
2023-02-15T16:01:12.766Z,32.00
2023-02-15T16:03:40.180Z,32.50
2023-02-15T16:06:07.549Z,30.90
2023-02-15T16:08:36.238Z,31.50
2023-02-15T16:11:17.609Z,32.70
2023-02-15T16:13:45.499Z,31.20
2023-02-15T16:16:23.288Z,32.20
2023-02-15T16:18:51.489Z,31.60
2023-02-15T16:21:28.246Z,30.10
2023-02-15T16:24:15.042Z,31.30
2023-02-15T16:26:57.245Z,32.40
2023-02-15T16:29:33.615Z,30.30
2023-02-15T16:32:22.145Z,27.50
2023-02-15T16:35:03.624Z,28.20
2023-02-15T16:37:35.866Z,30.10
2023-02-15T16:40:02.928Z,30.50
2023-02-15T16:42:30.107Z,29.20
2023-02-15T16:45:06.716Z,28.70
2023-02-15T16:47:40.180Z,25.80
2023-02-15T16:50:17.639Z,25.30
2023-02-15T16:52:45.330Z,26.30
2023-02-15T16:55:23.701Z,26.20
2023-02-15T16:57:53.081Z,25.70
2023-02-15T17:00:24.172Z,28.60
2023-02-15T17:03:03.546Z,26.30
2023-02-15T17:05:41.284Z,25.80
2023-02-15T17:08:31.986Z,26.80
2023-02-15T17:11:22.225Z,25.50
2023-02-15T17:14:15.591Z,27.20
2023-02-15T17:16:45.838Z,25.30
2023-02-15T17:19:20.115Z,31.40
2023-02-15T17:21:54.310Z,30.20
2023-02-15T17:24:45.126Z,28.40
2023-02-15T17:27:29.965Z,29.10
2023-02-15T17:30:18.832Z,31.80
2023-02-15T17:33:00.121Z,35.10
2023-02-15T17:35:29.957Z,32.40
2023-02-15T17:40:59.738Z,32.20
2023-02-15T17:43:26.988Z,30.40
2023-02-15T17:45:55.250Z,29.90
2023-02-15T17:48:31.973Z,28.00
2023-02-15T17:51:04.575Z,32.10
2023-02-15T17:53:32.716Z,31.40
2023-02-15T17:55:59.858Z,29.90
2023-02-15T17:58:26.794Z,29.80
2023-02-15T18:01:16.101Z,58.40
2023-02-15T18:04:07.010Z,90.10
2023-02-15T18:06:54.720Z,38.20
2023-02-15T18:09:41.698Z,106.80
2023-02-15T18:12:24.101Z,32.10
2023-02-15T18:14:52.281Z,29.10
2023-02-15T18:17:19.884Z,35.00
2023-02-15T18:19:48.033Z,38.80
2023-02-15T18:22:18.876Z,55.10
2023-02-15T18:24:47.591Z,32.00
2023-02-15T18:27:15.628Z,37.00
2023-02-15T18:29:43.532Z,30.20
2023-02-15T18:32:22.201Z,35.10
2023-02-15T18:34:50.505Z,33.00
2023-02-15T18:37:20.796Z,32.70
2023-02-15T18:39:50.848Z,31.20
2023-02-15T18:42:39.643Z,38.30
2023-02-15T18:45:19.368Z,35.10
2023-02-15T18:47:47.843Z,30.70
2023-02-15T18:50:20.541Z,35.10
2023-02-15T18:52:51.700Z,34.40
2023-02-15T18:55:28.008Z,32.90
2023-02-15T18:57:57.738Z,31.40
2023-02-15T19:00:32.273Z,34.60
2023-02-15T19:03:01.938Z,30.10
2023-02-15T19:05:30.655Z,31.80
2023-02-15T19:08:00.136Z,32.10
2023-02-15T19:10:30.720Z,33.40
2023-02-15T19:12:58.277Z,34.10
2023-02-15T19:15:27.771Z,39.30
2023-02-15T19:17:55.410Z,38.40
2023-02-15T19:20:31.042Z,37.00
2023-02-15T19:23:01.434Z,42.60
2023-02-15T19:25:34.404Z,36.60
2023-02-15T19:28:05.858Z,36.40
2023-02-15T19:30:32.976Z,36.70
2023-02-15T19:33:02.189Z,37.50
2023-02-15T19:35:35.411Z,45.10
2023-02-15T19:38:08.192Z,54.40
2023-02-15T19:40:37.189Z,53.90
2023-02-15T19:43:04.663Z,49.20
2023-02-15T19:45:33.709Z,46.50
2023-02-15T19:48:06.729Z,44.70
2023-02-15T19:50:34.677Z,44.40
2023-02-15T19:53:03.412Z,43.30
2023-02-15T19:55:36.524Z,49.30
2023-02-15T19:58:04.021Z,51.40
2023-02-15T20:00:33.706Z,51.60
2023-02-15T20:03:01.336Z,52.30
2023-02-15T20:05:34.989Z,54.70
2023-02-15T20:08:04.651Z,57.40
2023-02-15T20:10:42.292Z,57.10
2023-02-15T20:13:15.397Z,59.40
2023-02-15T20:15:43.839Z,63.80
2023-02-15T20:18:11.276Z,68.20
2023-02-15T20:20:56.275Z,68.00
2023-02-15T20:23:29.734Z,94.60
2023-02-15T20:26:00.104Z,118.30
2023-02-15T20:28:29.942Z,190.90
2023-02-15T20:33:25.259Z,155.50
2023-02-15T20:35:52.431Z,120.50
2023-02-15T20:38:29.396Z,121.50
2023-02-15T20:41:16.990Z,121.80
2023-02-15T20:43:43.963Z,117.70
2023-02-15T20:46:10.912Z,69.70
2023-02-15T20:48:38.463Z,64.20
2023-02-15T20:51:07.483Z,56.30
2023-02-15T20:53:35.228Z,55.70
2023-02-15T20:56:02.962Z,58.30
2023-02-15T20:58:31.129Z,62.90
2023-02-15T21:00:59.395Z,65.20
2023-02-15T21:03:31.111Z,63.80
2023-02-15T21:05:59.632Z,61.90
2023-02-15T21:08:27.769Z,65.70
2023-02-15T21:10:55.989Z,78.80
2023-02-15T21:13:30.890Z,127.60
2023-02-15T21:15:58.982Z,90.00
2023-02-15T21:18:28.993Z,97.90
2023-02-15T21:23:34.245Z,60.30
2023-02-15T21:26:02.205Z,55.30
2023-02-15T21:28:31.930Z,53.80
2023-02-15T21:30:59.786Z,52.60
2023-02-15T21:33:27.816Z,50.20
2023-02-15T21:35:57.485Z,50.70
2023-02-15T21:38:29.559Z,54.00
2023-02-15T21:41:16.570Z,54.80
2023-02-15T21:44:02.291Z,60.40
2023-02-15T21:46:47.780Z,62.70
2023-02-15T21:49:14.755Z,56.40
2023-02-15T21:52:00.486Z,61.50
2023-02-15T21:54:27.482Z,76.00
2023-02-15T21:56:54.385Z,86.30
2023-02-15T21:59:21.395Z,80.40
2023-02-15T22:01:50.956Z,79.10
2023-02-15T22:04:25.152Z,77.60
2023-02-15T22:06:52.783Z,76.10
2023-02-15T22:09:22.809Z,76.70
2023-02-15T22:11:51.188Z,74.70
2023-02-15T22:14:27.351Z,75.30
2023-02-15T22:16:54.320Z,74.00
2023-02-15T22:19:21.263Z,75.10
2023-02-15T22:21:48.209Z,72.90
2023-02-15T22:24:15.155Z,77.90
2023-02-15T22:26:42.104Z,77.90
2023-02-15T22:29:16.938Z,79.30
2023-02-15T22:31:44.176Z,82.30
2023-02-15T22:34:26.923Z,81.50
2023-02-15T22:36:55.591Z,96.60
2023-02-15T22:39:24.812Z,100.00
2023-02-15T22:41:55.530Z,97.10
2023-02-15T22:44:30.019Z,104.00
2023-02-15T22:46:57.829Z,93.20
2023-02-15T22:49:24.971Z,77.40
2023-02-15T22:51:52.542Z,69.20
2023-02-15T22:54:20.098Z,68.60
2023-02-15T22:56:50.260Z,65.50
2023-02-15T22:59:35.290Z,65.80
2023-02-15T23:02:03.568Z,63.30
2023-02-15T23:04:30.535Z,59.90
2023-02-15T23:07:00.795Z,60.20
2023-02-15T23:09:27.914Z,67.00
2023-02-15T23:11:54.859Z,63.40
2023-02-15T23:14:33.718Z,65.10
2023-02-15T23:17:01.129Z,60.50
2023-02-15T23:19:28.291Z,59.20
2023-02-15T23:21:55.241Z,62.60
2023-02-15T23:24:26.597Z,94.50
2023-02-15T23:26:54.048Z,59.00
2023-02-15T23:29:23.232Z,63.90
2023-02-15T23:31:53.328Z,61.10
2023-02-15T23:34:24.839Z,61.20
2023-02-15T23:36:51.777Z,60.80
2023-02-15T23:39:40.433Z,63.10
2023-02-15T23:42:15.160Z,57.90
2023-02-15T23:44:44.259Z,59.60
2023-02-15T23:47:43.436Z,56.60
2023-02-15T23:50:16.934Z,63.00
2023-02-15T23:52:43.786Z,61.40
2023-02-15T23:55:15.462Z,57.50
2023-02-15T23:57:43.419Z,61.40
